| time (UTC) | temp C | wind direction | speed KPH | gust KPH | rain 1hr cm | rain 24hr cm | rain mn cm | humidity % | barometer mb |
| 20260506014300 | 23 | 25 | 0.0 | 4.8 | 0.00 | 0.00 | 0.00 | 53 | 1012.4 |
| 20260506013232 | 23 | 6 | 0.0 | 6.4 | 0.00 | 0.00 | 0.00 | 52 | 1012.2 |
| 20260506012226 | 23 | 67 | 0.0 | 9.7 | 0.00 | 0.00 | 0.00 | 52 | 1012.2 |
| 20260506011228 | 24 | 92 | 0.0 | 3.2 | 0.00 | 0.00 | 0.00 | 49 | 1012.1 |
| 20260506010159 | 25 | 89 | 0.0 | 4.8 | 0.00 | 0.00 | 0.00 | 50 | 1012.2 |
| 20260506005145 | 25 | 295 | 0.0 | 4.8 | 0.00 | 0.00 | 0.00 | 50 | 1012.1 |
| 20260506004136 | 25 | 321 | 0.0 | 1.6 | 0.00 | 0.00 | 0.00 | 50 | 1012.2 |
| 20260506003108 | 25 | 148 | 0.0 | 6.4 | 0.00 | 0.00 | 0.00 | 50 | 1012.1 |
| 20260506002125 | 25 | 150 | 0.0 | 9.7 | 0.00 | 0.00 | 0.00 | 49 | 1012.1 |
| 20260506001150 | 25 | 61 | 0.0 | 6.4 | 0.00 | 0.00 | 0.00 | 50 | 1012.1 |
| 20260505235055 | 26 | 178 | 0.0 | 6.4 | 0.00 | 0.00 | 0.00 | 48 | 1012.3 |
| 20260505232930 | 26 | 44 | 0.0 | 4.8 | 0.00 | 0.00 | 0.00 | 48 | 1012.3 |
| 20260505231938 | 26 | 132 | 0.0 | 4.8 | 0.00 | 0.00 | 0.00 | 47 | 1012.3 |
| 20260505230914 | 26 | 26 | 0.0 | 6.4 | 0.00 | 0.00 | 0.00 | 49 | 1012.3 |
| 20260505225915 | 26 | 221 | 0.0 | 6.4 | 0.00 | 0.00 | 0.00 | 47 | 1012.3 |
| 20260505224935 | 26 | 6 | 0.0 | 3.2 | 0.00 | 0.00 | 0.00 | 48 | 1012.4 |
| 20260505222741 | 26 | 282 | 0.0 | 6.4 | 0.00 | 0.00 | 0.00 | 50 | 1012.5 |
| 20260505221714 | 26 | 72 | 0.0 | 11.3 | 0.00 | 0.00 | 0.00 | 48 | 1012.6 |
| 20260505220714 | 26 | 34 | 0.0 | 11.3 | 0.00 | 0.00 | 0.00 | 48 | 1012.7 |
| 20260505215726 | 26 | 0 | 0.0 | 6.4 | 0.00 | 0.00 | 0.00 | 49 | 1012.7 |
| 20260505214732 | 25 | 278 | 0.0 | 9.7 | 0.00 | 0.00 | 0.00 | 51 | 1012.8 |
| 20260505213748 | 25 | 19 | 0.0 | 9.7 | 0.00 | 0.00 | 0.00 | 50 | 1012.9 |
| 20260505212736 | 25 | 22 | 0.0 | 9.7 | 0.00 | 0.00 | 0.00 | 49 | 1013.0 |
| 20260505211747 | 25 | 61 | 0.0 | 11.3 | 0.00 | 0.00 | 0.00 | 50 | 1013.1 |
| 20260505210755 | 25 | 23 | 1.6 | 11.3 | 0.00 | 0.00 | 0.00 | 50 | 1013.1 |
| 20260505204644 | 24 | 35 | 0.0 | 9.7 | 0.00 | 0.00 | 0.00 | 50 | 1013.3 |
| 20260505203639 | 24 | 70 | 1.6 | 9.7 | 0.00 | 0.00 | 0.00 | 52 | 1013.3 |
| 20260505202635 | 24 | 23 | 1.6 | 9.7 | 0.00 | 0.00 | 0.00 | 51 | 1013.5 |
| 20260505201602 | 24 | 252 | 0.0 | 6.4 | 0.00 | 0.00 | 0.00 | 52 | 1013.5 |
| 20260505200558 | 24 | 49 | 0.0 | 9.7 | 0.00 | 0.00 | 0.00 | 52 | 1013.5 |
| 20260505195602 | 23 | 5 | 0.0 | 11.3 | 0.00 | 0.00 | 0.00 | 50 | 1013.6 |
| 20260505194624 | 23 | 98 | 0.0 | 11.3 | 0.00 | 0.00 | 0.00 | 54 | 1013.6 |
| 20260505193643 | 23 | 293 | 0.0 | 9.7 | 0.00 | 0.00 | 0.00 | 55 | 1013.7 |
| 20260505192635 | 23 | 57 | 0.0 | 9.7 | 0.00 | 0.00 | 0.00 | 51 | 1013.8 |
| 20260505191601 | 23 | 12 | 0.0 | 0.0 | 0.00 | 0.00 | 0.00 | 53 | 1013.8 |
| 20260505190609 | 22 | 297 | 0.0 | 8.0 | 0.00 | 0.00 | 0.00 | 54 | 1013.8 |
| 20260505183339 | 22 | 232 | 0.0 | 6.4 | 0.00 | 0.00 | 0.00 | 57 | 1014.0 |
| 20260505182317 | 21 | 35 | 0.0 | 6.4 | 0.00 | 0.00 | 0.00 | 58 | 1014.0 |
| 20260505181330 | 21 | 72 | 0.0 | 3.2 | 0.00 | 0.00 | 0.00 | 58 | 1014.0 |
| 20260505175141 | 20 | 42 | 0.0 | 3.2 | 0.00 | 0.00 | 0.00 | 60 | 1014.0 |
| 20260505174143 | 20 | 269 | 0.0 | 4.8 | 0.00 | 0.00 | 0.00 | 60 | 1014.0 |
| 20260505173132 | 20 | 311 | 0.0 | 6.4 | 0.00 | 0.00 | 0.00 | 61 | 1014.0 |
| 20260505172111 | 19 | 311 | 0.0 | 3.2 | 0.00 | 0.00 | 0.00 | 63 | 1013.9 |
| 20260505171045 | 19 | 82 | 0.0 | 3.2 | 0.00 | 0.00 | 0.00 | 62 | 1013.9 |
| 20260505170105 | 19 | 103 | 0.0 | 8.0 | 0.00 | 0.00 | 0.00 | 62 | 1013.9 |
| 20260505165032 | 18 | 159 | 0.0 | 4.8 | 0.00 | 0.00 | 0.00 | 64 | 1014.0 |
| 20260505164043 | 18 | 4 | 0.0 | 4.8 | 0.00 | 0.00 | 0.00 | 66 | 1013.9 |
| 20260505161943 | 16 | 50 | 0.0 | 0.0 | 0.00 | 0.00 | 0.00 | 70 | 1013.9 |
| 20260505160950 | 16 | 115 | 0.0 | 0.0 | 0.00 | 0.00 | 0.00 | 72 | 1013.9 |
| 20260505152924 | 14 | 166 | 0.0 | 1.6 | 0.00 | 0.00 | 0.00 | 79 | 1013.9 |
| 20260505151923 | 13 | 132 | 0.0 | 0.0 | 0.00 | 0.00 | 0.00 | 80 | 1014.0 |
| 20260505150856 | 13 | 133 | 0.0 | 0.0 | 0.00 | 0.00 | 0.00 | 81 | 1013.9 |
| 20260505123656 | 10 | 123 | 0.0 | 0.0 | 0.00 | 0.00 | 0.00 | 85 | 1013.2 |
| 20260505122641 | 10 | 129 | 1.6 | 4.8 | 0.00 | 0.00 | 0.00 | 88 | 1013.0 |
| 20260505121625 | 10 | 207 | 0.0 | 8.0 | 0.00 | 0.00 | 0.00 | 88 | 1013.1 |
| 20260505115504 | 10 | 218 | 0.0 | 0.0 | 0.00 | 0.00 | 0.00 | 88 | 1013.0 |
| 20260505114446 | 10 | 172 | 0.0 | 0.0 | 0.00 | 0.00 | 0.00 | 86 | 1013.0 |
| 20260505113445 | 11 | 250 | 0.0 | 0.0 | 0.00 | 0.00 | 0.00 | 86 | 1012.9 |
| 20260505111314 | 11 | 200 | 0.0 | 0.0 | 0.00 | 0.00 | 0.00 | 83 | 1012.9 |
| 20260505110322 | 12 | 147 | 0.0 | 4.8 | 0.00 | 0.00 | 0.00 | 81 | 1012.6 |
| 20260505102133 | 15 | 200 | 1.6 | 14.5 | 0.00 | 0.00 | 0.00 | 75 | 1012.5 |
| 20260505101105 | 15 | 212 | 6.4 | 14.5 | 0.00 | 0.00 | 0.00 | 72 | 1012.5 |
| 20260505100031 | 15 | 227 | 4.8 | 12.9 | 0.00 | 0.00 | 0.00 | 75 | 1012.3 |
| 20260505095027 | 15 | 199 | 0.0 | 3.2 | 0.00 | 0.00 | 0.00 | 75 | 1012.3 |
| 20260505094034 | 15 | 221 | 1.6 | 9.7 | 0.00 | 0.00 | 0.00 | 76 | 1012.2 |
| 20260505091906 | 15 | 271 | 0.0 | 8.0 | 0.00 | 0.00 | 0.00 | 76 | 1012.2 |
| 20260505090845 | 16 | 146 | 1.6 | 11.3 | 0.00 | 0.00 | 0.00 | 74 | 1012.1 |
| 20260505085846 | 15 | 235 | 1.6 | 1.6 | 0.00 | 0.00 | 0.00 | 75 | 1012.0 |
| 20260505083651 | 16 | 62 | 0.0 | 0.0 | 0.00 | 0.00 | 0.00 | 73 | 1011.9 |
| 20260505081447 | 16 | 248 | 3.2 | 11.3 | 0.00 | 0.00 | 0.00 | 72 | 1011.9 |
| 20260505080420 | 16 | 155 | 3.2 | 9.7 | 0.00 | 0.00 | 0.00 | 73 | 1011.8 |
| 20260505075353 | 16 | 174 | 0.0 | 8.0 | 0.00 | 0.00 | 0.00 | 73 | 1011.8 |
| 20260505074355 | 16 | 123 | 0.0 | 0.0 | 0.00 | 0.00 | 0.00 | 72 | 1011.8 |
| 20260505073416 | 16 | 224 | 0.0 | 0.0 | 0.00 | 0.00 | 0.00 | 72 | 1011.7 |
| 20260505072352 | 17 | 103 | 0.0 | 0.0 | 0.00 | 0.00 | 0.00 | 72 | 1011.8 |
| 20260505071334 | 16 | 143 | 0.0 | 6.4 | 0.00 | 0.00 | 0.00 | 73 | 1011.6 |
| 20260505070310 | 16 | 89 | 0.0 | 0.0 | 0.00 | 0.00 | 0.00 | 74 | 1011.6 |
| 20260505064214 | 16 | 30 | 0.0 | 1.6 | 0.00 | 0.00 | 0.00 | 73 | 1011.5 |
| 20260505063215 | 16 | 129 | 0.0 | 3.2 | 0.00 | 0.00 | 0.00 | 73 | 1011.5 |
| 20260505062200 | 16 | 146 | 0.0 | 6.4 | 0.00 | 0.00 | 0.00 | 73 | 1011.5 |
| 20260505061204 | 16 | 98 | 0.0 | 3.2 | 0.00 | 0.00 | 0.00 | 72 | 1011.5 |
| 20260505060138 | 16 | 44 | 0.0 | 0.0 | 0.00 | 0.00 | 0.00 | 72 | 1011.6 |
| 20260505053952 | 17 | 127 | 0.0 | 6.4 | 0.00 | 0.00 | 0.00 | 70 | 1011.5 |
| 20260505051804 | 17 | 67 | 0.0 | 1.6 | 0.00 | 0.00 | 0.00 | 67 | 1011.4 |
| 20260505041633 | 18 | 226 | 1.6 | 12.9 | 0.00 | 0.00 | 0.00 | 61 | 1011.0 |
| 20260505040604 | 18 | 203 | 0.0 | 8.0 | 0.00 | 0.00 | 0.00 | 60 | 1010.9 |
| 20260505035617 | 18 | 184 | 1.6 | 11.3 | 0.00 | 0.00 | 0.00 | 59 | 1010.6 |
| 20260505034601 | 18 | 208 | 0.0 | 6.4 | 0.00 | 0.00 | 0.00 | 56 | 1010.5 |
| 20260505032517 | 19 | 197 | 0.0 | 6.4 | 0.00 | 0.00 | 0.00 | 53 | 1010.3 |
| 20260505031527 | 19 | 120 | 0.0 | 6.4 | 0.00 | 0.00 | 0.00 | 53 | 1010.1 |
| 20260505030454 | 20 | 264 | 1.6 | 11.3 | 0.00 | 0.00 | 0.00 | 50 | 1010.1 |
| 20260505025513 | 20 | 197 | 0.0 | 0.0 | 0.00 | 0.00 | 0.00 | 51 | 1009.9 |
| 20260505024531 | 20 | 140 | 0.0 | 4.8 | 0.00 | 0.00 | 0.00 | 51 | 1009.8 |
| 20260505022411 | 21 | 231 | 0.0 | 9.7 | 0.00 | 0.00 | 0.00 | 49 | 1009.6 |
| 20260505021412 | 21 | 284 | 0.0 | 12.9 | 0.00 | 0.00 | 0.00 | 49 | 1009.6 |
| 20260505015215 | 22 | 225 | 1.6 | 16.1 | 0.00 | 0.00 | 0.00 | 46 | 1009.4 |